sensor_id;sensor_type;location;lat;lon;timestamp;pressure;altitude;pressure_sealevel;temperature;humidity
37832;BME280;23671;38.090;-122.570;2023-02-22T00:00:42;100732.34;;;15.24;55.61
37832;BME280;23671;38.090;-122.570;2023-02-22T00:03:20;100745.63;;;15.24;55.63
37832;BME280;23671;38.090;-122.570;2023-02-22T00:05:53;100726.34;;;15.22;56.24
37832;BME280;23671;38.090;-122.570;2023-02-22T00:08:22;100727.31;;;15.21;55.62
37832;BME280;23671;38.090;-122.570;2023-02-22T00:10:50;100724.97;;;15.18;55.37
37832;BME280;23671;38.090;-122.570;2023-02-22T00:13:18;100723.00;;;15.20;54.69
37832;BME280;23671;38.090;-122.570;2023-02-22T00:15:48;100725.41;;;15.14;55.58
37832;BME280;23671;38.090;-122.570;2023-02-22T00:18:17;100725.88;;;15.09;55.64
37832;BME280;23671;38.090;-122.570;2023-02-22T00:20:44;100732.31;;;15.07;55.45
37832;BME280;23671;38.090;-122.570;2023-02-22T00:23:18;100724.78;;;15.02;55.77
37832;BME280;23671;38.090;-122.570;2023-02-22T00:25:49;100715.03;;;14.93;55.64
37832;BME280;23671;38.090;-122.570;2023-02-22T00:28:17;100717.69;;;14.93;54.73
37832;BME280;23671;38.090;-122.570;2023-02-22T00:30:45;100726.41;;;14.86;56.21
37832;BME280;23671;38.090;-122.570;2023-02-22T00:33:14;100737.38;;;14.83;55.51
37832;BME280;23671;38.090;-122.570;2023-02-22T00:35:43;100730.78;;;14.77;56.01
37832;BME280;23671;38.090;-122.570;2023-02-22T00:38:16;100729.44;;;14.73;56.23
37832;BME280;23671;38.090;-122.570;2023-02-22T00:40:45;100717.66;;;14.76;55.92
37832;BME280;23671;38.090;-122.570;2023-02-22T00:43:13;100710.28;;;14.70;56.31
37832;BME280;23671;38.090;-122.570;2023-02-22T00:45:41;100710.03;;;14.63;56.57
37832;BME280;23671;38.090;-122.570;2023-02-22T00:48:09;100700.38;;;14.62;55.98
37832;BME280;23671;38.090;-122.570;2023-02-22T00:50:36;100700.69;;;14.59;56.17
37832;BME280;23671;38.090;-122.570;2023-02-22T00:53:04;100702.94;;;14.54;55.66
37832;BME280;23671;38.090;-122.570;2023-02-22T00:55:35;100696.69;;;14.45;54.90
37832;BME280;23671;38.090;-122.570;2023-02-22T00:58:03;100690.16;;;14.40;55.33
37832;BME280;23671;38.090;-122.570;2023-02-22T01:00:34;100696.44;;;14.39;54.88
37832;BME280;23671;38.090;-122.570;2023-02-22T01:03:03;100701.06;;;14.37;55.47
37832;BME280;23671;38.090;-122.570;2023-02-22T01:05:31;100699.56;;;14.34;55.36
37832;BME280;23671;38.090;-122.570;2023-02-22T01:08:00;100701.63;;;14.31;54.44
37832;BME280;23671;38.090;-122.570;2023-02-22T01:10:29;100701.38;;;14.24;54.94
37832;BME280;23671;38.090;-122.570;2023-02-22T01:12:56;100706.41;;;14.18;54.46
37832;BME280;23671;38.090;-122.570;2023-02-22T01:15:26;100698.75;;;14.15;54.93
37832;BME280;23671;38.090;-122.570;2023-02-22T01:17:57;100699.59;;;14.06;53.93
37832;BME280;23671;38.090;-122.570;2023-02-22T01:20:26;100695.63;;;13.54;47.73
37832;BME280;23671;38.090;-122.570;2023-02-22T01:22:55;100712.25;;;13.27;47.00
37832;BME280;23671;38.090;-122.570;2023-02-22T01:25:24;100695.00;;;12.93;47.35
37832;BME280;23671;38.090;-122.570;2023-02-22T01:27:52;100681.16;;;12.70;47.25
37832;BME280;23671;38.090;-122.570;2023-02-22T01:30:25;100684.88;;;12.58;47.76
37832;BME280;23671;38.090;-122.570;2023-02-22T01:32:52;100690.31;;;12.57;47.58
37832;BME280;23671;38.090;-122.570;2023-02-22T01:35:23;100687.06;;;12.44;46.51
37832;BME280;23671;38.090;-122.570;2023-02-22T01:37:51;100699.13;;;12.27;46.25
37832;BME280;23671;38.090;-122.570;2023-02-22T01:40:33;100706.13;;;12.08;46.65
37832;BME280;23671;38.090;-122.570;2023-02-22T01:43:03;100714.03;;;12.28;47.24
37832;BME280;23671;38.090;-122.570;2023-02-22T01:48:07;100746.75;;;12.57;48.43
37832;BME280;23671;38.090;-122.570;2023-02-22T01:50:44;100732.72;;;12.66;49.96
37832;BME280;23671;38.090;-122.570;2023-02-22T01:53:15;100740.25;;;12.71;50.20
37832;BME280;23671;38.090;-122.570;2023-02-22T01:55:44;100743.50;;;12.74;50.58
37832;BME280;23671;38.090;-122.570;2023-02-22T01:58:13;100738.88;;;12.76;51.03
37832;BME280;23671;38.090;-122.570;2023-02-22T02:00:42;100726.63;;;12.75;50.93
37832;BME280;23671;38.090;-122.570;2023-02-22T02:03:19;100727.63;;;12.74;50.83
37832;BME280;23671;38.090;-122.570;2023-02-22T02:05:49;100716.88;;;12.76;50.57
37832;BME280;23671;38.090;-122.570;2023-02-22T02:11:09;100707.50;;;12.72;51.18
37832;BME280;23671;38.090;-122.570;2023-02-22T02:13:36;100704.41;;;12.67;50.65
37832;BME280;23671;38.090;-122.570;2023-02-22T02:16:07;100703.72;;;12.65;50.84
37832;BME280;23671;38.090;-122.570;2023-02-22T02:18:35;100700.38;;;12.63;51.06
37832;BME280;23671;38.090;-122.570;2023-02-22T02:24:04;100709.69;;;12.57;50.98
37832;BME280;23671;38.090;-122.570;2023-02-22T02:43:17;100696.16;;;12.21;51.23
37832;BME280;23671;38.090;-122.570;2023-02-22T02:46:11;100696.44;;;12.18;51.05
37832;BME280;23671;38.090;-122.570;2023-02-22T02:48:53;100689.72;;;12.14;51.10
37832;BME280;23671;38.090;-122.570;2023-02-22T02:51:26;100690.50;;;12.05;51.18
37832;BME280;23671;38.090;-122.570;2023-02-22T02:53:55;100681.16;;;12.01;51.66
37832;BME280;23671;38.090;-122.570;2023-02-22T02:56:23;100685.28;;;11.94;51.54
37832;BME280;23671;38.090;-122.570;2023-02-22T02:58:52;100696.13;;;11.91;51.51
37832;BME280;23671;38.090;-122.570;2023-02-22T03:12:32;100649.28;;;11.61;51.64
37832;BME280;23671;38.090;-122.570;2023-02-22T03:15:31;100662.91;;;11.56;52.11
37832;BME280;23671;38.090;-122.570;2023-02-22T03:23:40;100640.75;;;11.37;51.59
37832;BME280;23671;38.090;-122.570;2023-02-22T03:26:18;100633.09;;;11.34;51.98
37832;BME280;23671;38.090;-122.570;2023-02-22T03:28:52;100630.84;;;11.29;51.96
37832;BME280;23671;38.090;-122.570;2023-02-22T03:31:30;100606.47;;;11.26;52.23
37832;BME280;23671;38.090;-122.570;2023-02-22T03:34:04;100619.22;;;11.21;52.36
37832;BME280;23671;38.090;-122.570;2023-02-22T03:36:38;100619.72;;;11.15;52.22
37832;BME280;23671;38.090;-122.570;2023-02-22T03:39:10;100639.47;;;11.11;52.20
37832;BME280;23671;38.090;-122.570;2023-02-22T03:41:45;100636.34;;;11.06;52.34
37832;BME280;23671;38.090;-122.570;2023-02-22T03:44:23;100675.41;;;11.02;52.21
37832;BME280;23671;38.090;-122.570;2023-02-22T03:46:53;100687.88;;;11.00;52.19
37832;BME280;23671;38.090;-122.570;2023-02-22T03:52:13;100702.78;;;10.90;52.23
37832;BME280;23671;38.090;-122.570;2023-02-22T03:54:41;100703.19;;;10.85;52.57
37832;BME280;23671;38.090;-122.570;2023-02-22T03:57:23;100711.47;;;10.81;52.51
37832;BME280;23671;38.090;-122.570;2023-02-22T03:59:51;100717.94;;;10.77;52.40
37832;BME280;23671;38.090;-122.570;2023-02-22T04:02:19;100716.28;;;10.76;52.51
37832;BME280;23671;38.090;-122.570;2023-02-22T04:04:46;100720.13;;;10.72;52.48
37832;BME280;23671;38.090;-122.570;2023-02-22T04:07:14;100714.34;;;10.67;52.48
37832;BME280;23671;38.090;-122.570;2023-02-22T04:09:41;100701.78;;;10.59;52.51
37832;BME280;23671;38.090;-122.570;2023-02-22T04:12:08;100708.03;;;10.58;52.77
37832;BME280;23671;38.090;-122.570;2023-02-22T04:14:35;100700.47;;;10.54;52.93
37832;BME280;23671;38.090;-122.570;2023-02-22T04:17:02;100696.16;;;10.53;52.94
37832;BME280;23671;38.090;-122.570;2023-02-22T04:19:29;100728.06;;;10.50;52.59
37832;BME280;23671;38.090;-122.570;2023-02-22T04:21:56;100725.75;;;10.45;52.82
37832;BME280;23671;38.090;-122.570;2023-02-22T04:24:23;100721.72;;;10.41;52.97
37832;BME280;23671;38.090;-122.570;2023-02-22T04:26:51;100723.63;;;10.39;53.21
37832;BME280;23671;38.090;-122.570;2023-02-22T04:29:18;100729.47;;;10.32;53.00
37832;BME280;23671;38.090;-122.570;2023-02-22T04:31:45;100724.47;;;10.29;53.27
37832;BME280;23671;38.090;-122.570;2023-02-22T04:34:12;100714.16;;;10.26;53.46
37832;BME280;23671;38.090;-122.570;2023-02-22T04:36:39;100716.06;;;10.24;53.24
37832;BME280;23671;38.090;-122.570;2023-02-22T04:39:10;100709.44;;;10.18;53.41
37832;BME280;23671;38.090;-122.570;2023-02-22T04:41:37;100712.47;;;10.14;53.50
37832;BME280;23671;38.090;-122.570;2023-02-22T04:44:04;100716.28;;;10.10;53.69
37832;BME280;23671;38.090;-122.570;2023-02-22T04:46:31;100699.72;;;10.07;53.91
37832;BME280;23671;38.090;-122.570;2023-02-22T04:48:58;100709.66;;;10.04;53.83
37832;BME280;23671;38.090;-122.570;2023-02-22T04:51:25;100731.94;;;10.00;54.18
37832;BME280;23671;38.090;-122.570;2023-02-22T04:53:52;100720.69;;;9.98;53.82
37832;BME280;23671;38.090;-122.570;2023-02-22T04:56:19;100726.28;;;9.93;53.91
37832;BME280;23671;38.090;-122.570;2023-02-22T04:58:46;100721.13;;;9.92;54.14
37832;BME280;23671;38.090;-122.570;2023-02-22T05:01:14;100742.69;;;9.86;54.11
37832;BME280;23671;38.090;-122.570;2023-02-22T05:03:42;100742.81;;;9.84;54.16
37832;BME280;23671;38.090;-122.570;2023-02-22T05:06:09;100760.69;;;9.81;53.93
37832;BME280;23671;38.090;-122.570;2023-02-22T05:08:38;100766.28;;;9.76;54.18
37832;BME280;23671;38.090;-122.570;2023-02-22T05:11:05;100741.22;;;9.71;54.52
37832;BME280;23671;38.090;-122.570;2023-02-22T05:13:32;100765.28;;;9.66;54.70
37832;BME280;23671;38.090;-122.570;2023-02-22T05:15:59;100764.47;;;9.66;54.51
37832;BME280;23671;38.090;-122.570;2023-02-22T05:18:26;100767.31;;;9.63;54.77
37832;BME280;23671;38.090;-122.570;2023-02-22T05:20:53;100777.97;;;9.61;54.31
37832;BME280;23671;38.090;-122.570;2023-02-22T05:23:20;100777.50;;;9.56;54.41
37832;BME280;23671;38.090;-122.570;2023-02-22T05:25:47;100783.56;;;9.57;54.67
37832;BME280;23671;38.090;-122.570;2023-02-22T05:28:15;100777.94;;;9.50;54.99
37832;BME280;23671;38.090;-122.570;2023-02-22T05:30:43;100790.50;;;9.47;54.70
37832;BME280;23671;38.090;-122.570;2023-02-22T05:33:10;100784.50;;;9.45;54.80
37832;BME280;23671;38.090;-122.570;2023-02-22T05:35:37;100782.91;;;9.42;54.68
37832;BME280;23671;38.090;-122.570;2023-02-22T05:38:04;100777.84;;;9.39;54.90
37832;BME280;23671;38.090;-122.570;2023-02-22T05:40:32;100771.97;;;9.36;54.93
37832;BME280;23671;38.090;-122.570;2023-02-22T05:43:00;100760.72;;;9.34;55.51
37832;BME280;23671;38.090;-122.570;2023-02-22T05:45:28;100766.22;;;9.31;55.71
37832;BME280;23671;38.090;-122.570;2023-02-22T05:47:56;100762.00;;;9.28;55.61
37832;BME280;23671;38.090;-122.570;2023-02-22T05:50:23;100749.28;;;9.22;55.25
37832;BME280;23671;38.090;-122.570;2023-02-22T05:52:51;100751.09;;;9.22;55.27
37832;BME280;23671;38.090;-122.570;2023-02-22T05:55:20;100756.56;;;9.18;55.46
37832;BME280;23671;38.090;-122.570;2023-02-22T05:57:48;100754.06;;;9.17;55.25
37832;BME280;23671;38.090;-122.570;2023-02-22T06:00:25;100746.25;;;9.15;55.74
37832;BME280;23671;38.090;-122.570;2023-02-22T06:03:05;100763.13;;;9.13;55.65
37832;BME280;23671;38.090;-122.570;2023-02-22T06:05:34;100754.38;;;9.12;55.95
37832;BME280;23671;38.090;-122.570;2023-02-22T06:08:02;100754.25;;;9.14;55.11
37832;BME280;23671;38.090;-122.570;2023-02-22T06:10:29;100735.50;;;9.18;55.54
37832;BME280;23671;38.090;-122.570;2023-02-22T06:12:57;100744.00;;;9.22;55.20
37832;BME280;23671;38.090;-122.570;2023-02-22T06:15:25;100751.59;;;9.27;54.56
37832;BME280;23671;38.090;-122.570;2023-02-22T06:17:53;100736.50;;;9.29;54.63
37832;BME280;23671;38.090;-122.570;2023-02-22T06:20:23;100737.81;;;9.23;55.16
37832;BME280;23671;38.090;-122.570;2023-02-22T06:22:52;100732.13;;;9.16;55.16
37832;BME280;23671;38.090;-122.570;2023-02-22T06:25:22;100735.00;;;9.13;55.30
37832;BME280;23671;38.090;-122.570;2023-02-22T06:27:50;100742.50;;;9.07;55.66
37832;BME280;23671;38.090;-122.570;2023-02-22T06:30:19;100736.50;;;9.05;55.10
37832;BME280;23671;38.090;-122.570;2023-02-22T06:32:46;100735.28;;;8.98;55.74
37832;BME280;23671;38.090;-122.570;2023-02-22T06:35:14;100740.53;;;8.98;55.65
37832;BME280;23671;38.090;-122.570;2023-02-22T06:37:41;100733.69;;;8.95;55.15
37832;BME280;23671;38.090;-122.570;2023-02-22T06:40:09;100718.22;;;8.91;55.34
37832;BME280;23671;38.090;-122.570;2023-02-22T06:42:37;100714.97;;;8.87;55.25
37832;BME280;23671;38.090;-122.570;2023-02-22T06:45:05;100719.41;;;8.87;55.50
37832;BME280;23671;38.090;-122.570;2023-02-22T06:47:32;100715.94;;;8.86;55.24
37832;BME280;23671;38.090;-122.570;2023-02-22T06:49:59;100725.13;;;8.81;56.10
37832;BME280;23671;38.090;-122.570;2023-02-22T06:52:26;100716.47;;;8.79;55.30
37832;BME280;23671;38.090;-122.570;2023-02-22T06:54:53;100710.38;;;8.78;55.55
37832;BME280;23671;38.090;-122.570;2023-02-22T06:57:20;100725.31;;;8.78;55.34
37832;BME280;23671;38.090;-122.570;2023-02-22T06:59:47;100710.69;;;8.74;55.53
37832;BME280;23671;38.090;-122.570;2023-02-22T07:02:14;100714.16;;;8.74;55.63
37832;BME280;23671;38.090;-122.570;2023-02-22T07:04:41;100696.72;;;8.73;56.15
37832;BME280;23671;38.090;-122.570;2023-02-22T07:07:10;100698.50;;;8.73;55.62
37832;BME280;23671;38.090;-122.570;2023-02-22T07:09:37;100689.13;;;8.69;55.41
37832;BME280;23671;38.090;-122.570;2023-02-22T07:12:04;100684.19;;;8.64;55.98
37832;BME280;23671;38.090;-122.570;2023-02-22T07:14:32;100673.56;;;8.66;55.45
37832;BME280;23671;38.090;-122.570;2023-02-22T07:16:59;100677.25;;;8.63;55.93
37832;BME280;23671;38.090;-122.570;2023-02-22T07:19:26;100677.47;;;8.60;56.17
37832;BME280;23671;38.090;-122.570;2023-02-22T07:21:53;100676.97;;;8.55;56.09
37832;BME280;23671;38.090;-122.570;2023-02-22T07:24:25;100676.22;;;8.53;55.99
37832;BME280;23671;38.090;-122.570;2023-02-22T07:26:53;100678.97;;;8.52;56.10
37832;BME280;23671;38.090;-122.570;2023-02-22T07:29:21;100683.69;;;8.47;55.82
37832;BME280;23671;38.090;-122.570;2023-02-22T07:31:48;100677.72;;;8.45;55.59
37832;BME280;23671;38.090;-122.570;2023-02-22T07:34:15;100679.53;;;8.44;55.94
37832;BME280;23671;38.090;-122.570;2023-02-22T07:36:42;100692.13;;;8.39;56.44
37832;BME280;23671;38.090;-122.570;2023-02-22T07:39:09;100686.06;;;8.39;55.63
37832;BME280;23671;38.090;-122.570;2023-02-22T07:41:36;100691.31;;;8.39;55.74
37832;BME280;23671;38.090;-122.570;2023-02-22T07:44:03;100679.34;;;8.35;56.46
37832;BME280;23671;38.090;-122.570;2023-02-22T07:46:30;100671.53;;;8.33;55.96
37832;BME280;23671;38.090;-122.570;2023-02-22T07:48:57;100686.56;;;8.31;55.85
37832;BME280;23671;38.090;-122.570;2023-02-22T07:51:24;100675.22;;;8.31;56.24
37832;BME280;23671;38.090;-122.570;2023-02-22T07:53:52;100674.50;;;8.29;56.47
37832;BME280;23671;38.090;-122.570;2023-02-22T07:56:19;100680.69;;;8.27;56.36
37832;BME280;23671;38.090;-122.570;2023-02-22T07:58:46;100672.06;;;8.25;56.28
37832;BME280;23671;38.090;-122.570;2023-02-22T08:01:13;100669.50;;;8.24;56.33
37832;BME280;23671;38.090;-122.570;2023-02-22T08:03:40;100681.19;;;8.20;56.00
37832;BME280;23671;38.090;-122.570;2023-02-22T08:06:08;100678.28;;;8.24;56.67
37832;BME280;23671;38.090;-122.570;2023-02-22T08:08:35;100679.31;;;8.22;56.29
37832;BME280;23671;38.090;-122.570;2023-02-22T08:11:02;100674.88;;;8.22;55.90
37832;BME280;23671;38.090;-122.570;2023-02-22T08:13:29;100672.25;;;8.22;56.26
37832;BME280;23671;38.090;-122.570;2023-02-22T08:15:56;100679.41;;;8.20;55.96
37832;BME280;23671;38.090;-122.570;2023-02-22T08:18:24;100671.53;;;8.20;56.11
37832;BME280;23671;38.090;-122.570;2023-02-22T08:20:52;100675.53;;;8.13;56.37
37832;BME280;23671;38.090;-122.570;2023-02-22T08:23:22;100674.06;;;8.09;56.50
37832;BME280;23671;38.090;-122.570;2023-02-22T08:25:51;100670.72;;;8.07;56.53
37832;BME280;23671;38.090;-122.570;2023-02-22T08:28:20;100673.22;;;8.09;55.83
37832;BME280;23671;38.090;-122.570;2023-02-22T08:30:49;100666.91;;;8.11;55.93
37832;BME280;23671;38.090;-122.570;2023-02-22T08:33:17;100663.75;;;8.06;56.28
37832;BME280;23671;38.090;-122.570;2023-02-22T08:35:46;100667.66;;;8.01;56.37
37832;BME280;23671;38.090;-122.570;2023-02-22T08:38:26;100671.31;;;7.98;56.08
37832;BME280;23671;38.090;-122.570;2023-02-22T08:40:53;100691.72;;;7.95;56.71
37832;BME280;23671;38.090;-122.570;2023-02-22T08:43:21;100682.38;;;8.03;56.30
37832;BME280;23671;38.090;-122.570;2023-02-22T08:45:48;100683.72;;;7.96;56.47
37832;BME280;23671;38.090;-122.570;2023-02-22T08:48:18;100683.41;;;8.01;56.20
37832;BME280;23671;38.090;-122.570;2023-02-22T08:50:45;100683.72;;;7.96;56.43
37832;BME280;23671;38.090;-122.570;2023-02-22T08:53:13;100685.72;;;7.93;56.45
37832;BME280;23671;38.090;-122.570;2023-02-22T08:55:41;100684.25;;;7.89;56.87
37832;BME280;23671;38.090;-122.570;2023-02-22T08:58:08;100686.69;;;7.92;56.43
37832;BME280;23671;38.090;-122.570;2023-02-22T09:00:36;100696.34;;;7.91;56.47
37832;BME280;23671;38.090;-122.570;2023-02-22T09:03:05;100711.63;;;7.86;56.97
37832;BME280;23671;38.090;-122.570;2023-02-22T09:05:33;100693.00;;;7.89;56.62
37832;BME280;23671;38.090;-122.570;2023-02-22T09:08:00;100690.06;;;7.94;56.04
37832;BME280;23671;38.090;-122.570;2023-02-22T09:10:31;100688.69;;;8.01;55.81
37832;BME280;23671;38.090;-122.570;2023-02-22T09:12:58;100672.41;;;7.96;56.18
37832;BME280;23671;38.090;-122.570;2023-02-22T09:15:29;100683.53;;;7.99;55.81
37832;BME280;23671;38.090;-122.570;2023-02-22T09:17:57;100678.28;;;7.99;56.11
37832;BME280;23671;38.090;-122.570;2023-02-22T09:20:25;100679.94;;;8.00;56.01
37832;BME280;23671;38.090;-122.570;2023-02-22T09:22:53;100669.44;;;8.00;55.77
37832;BME280;23671;38.090;-122.570;2023-02-22T09:25:21;100672.50;;;7.94;55.69
37832;BME280;23671;38.090;-122.570;2023-02-22T09:27:50;100672.16;;;7.99;55.89
37832;BME280;23671;38.090;-122.570;2023-02-22T09:32:44;100681.75;;;7.87;56.03
37832;BME280;23671;38.090;-122.570;2023-02-22T09:35:11;100678.19;;;7.88;56.08
37832;BME280;23671;38.090;-122.570;2023-02-22T09:37:38;100674.91;;;7.85;55.92
37832;BME280;23671;38.090;-122.570;2023-02-22T09:40:06;100691.53;;;7.85;56.16
37832;BME280;23671;38.090;-122.570;2023-02-22T09:42:46;100694.47;;;7.81;56.52
37832;BME280;23671;38.090;-122.570;2023-02-22T09:45:22;100694.25;;;7.84;56.10
37832;BME280;23671;38.090;-122.570;2023-02-22T09:47:54;100692.25;;;7.87;56.13
37832;BME280;23671;38.090;-122.570;2023-02-22T09:50:25;100691.53;;;7.85;56.08
37832;BME280;23671;38.090;-122.570;2023-02-22T09:53:11;100683.84;;;7.82;55.63
37832;BME280;23671;38.090;-122.570;2023-02-22T09:55:50;100678.72;;;7.81;56.24
37832;BME280;23671;38.090;-122.570;2023-02-22T09:58:23;100677.84;;;7.80;56.08
37832;BME280;23671;38.090;-122.570;2023-02-22T10:00:56;100681.22;;;7.82;56.13
37832;BME280;23671;38.090;-122.570;2023-02-22T10:03:49;100678.59;;;7.82;55.76
37832;BME280;23671;38.090;-122.570;2023-02-22T10:06:22;100683.13;;;7.80;55.66
37832;BME280;23671;38.090;-122.570;2023-02-22T10:08:54;100686.91;;;7.76;55.99
37832;BME280;23671;38.090;-122.570;2023-02-22T10:20:02;100670.28;;;7.76;55.86
37832;BME280;23671;38.090;-122.570;2023-02-22T10:23:35;100666.28;;;7.70;55.76
37832;BME280;23671;38.090;-122.570;2023-02-22T10:25:44;100665.66;;;7.67;55.89
37832;BME280;23671;38.090;-122.570;2023-02-22T10:28:23;100652.41;;;7.68;55.78
37832;BME280;23671;38.090;-122.570;2023-02-22T10:31:07;100656.06;;;7.66;56.30
37832;BME280;23671;38.090;-122.570;2023-02-22T10:33:47;100636.22;;;7.62;55.94
37832;BME280;23671;38.090;-122.570;2023-02-22T10:36:22;100634.97;;;7.55;56.17
37832;BME280;23671;38.090;-122.570;2023-02-22T10:39:06;100634.84;;;7.56;56.26
37832;BME280;23671;38.090;-122.570;2023-02-22T10:41:40;100632.22;;;7.56;56.07
37832;BME280;23671;38.090;-122.570;2023-02-22T10:44:10;100625.00;;;7.60;55.98
37832;BME280;23671;38.090;-122.570;2023-02-22T10:46:38;100616.88;;;7.63;56.03
37832;BME280;23671;38.090;-122.570;2023-02-22T10:49:07;100607.41;;;7.60;56.28
37832;BME280;23671;38.090;-122.570;2023-02-22T10:51:36;100602.16;;;7.60;56.13
37832;BME280;23671;38.090;-122.570;2023-02-22T10:57:07;100600.81;;;7.55;56.04
37832;BME280;23671;38.090;-122.570;2023-02-22T10:59:36;100615.41;;;7.59;56.14
37832;BME280;23671;38.090;-122.570;2023-02-22T11:02:21;100601.75;;;7.54;55.89
37832;BME280;23671;38.090;-122.570;2023-02-22T11:04:57;100613.09;;;7.54;56.24
37832;BME280;23671;38.090;-122.570;2023-02-22T11:09:56;100596.59;;;7.52;56.32
37832;BME280;23671;38.090;-122.570;2023-02-22T11:12:29;100596.06;;;7.47;56.52
37832;BME280;23671;38.090;-122.570;2023-02-22T11:15:42;100605.97;;;7.44;56.31
37832;BME280;23671;38.090;-122.570;2023-02-22T11:17:47;100609.63;;;7.41;56.14
37832;BME280;23671;38.090;-122.570;2023-02-22T11:20:29;100593.75;;;7.43;56.41
37832;BME280;23671;38.090;-122.570;2023-02-22T11:23:01;100609.44;;;7.44;56.47
37832;BME280;23671;38.090;-122.570;2023-02-22T11:25:40;100616.47;;;7.44;56.35
37832;BME280;23671;38.090;-122.570;2023-02-22T11:28:15;100619.19;;;7.42;56.40
37832;BME280;23671;38.090;-122.570;2023-02-22T11:30:51;100626.22;;;7.42;56.42
37832;BME280;23671;38.090;-122.570;2023-02-22T11:33:23;100628.84;;;7.42;56.16
37832;BME280;23671;38.090;-122.570;2023-02-22T11:35:56;100621.28;;;7.37;56.61
37832;BME280;23671;38.090;-122.570;2023-02-22T11:38:27;100619.19;;;7.42;56.23
37832;BME280;23671;38.090;-122.570;2023-02-22T11:41:20;100630.00;;;7.38;56.56
37832;BME280;23671;38.090;-122.570;2023-02-22T11:43:52;100630.13;;;7.36;56.57
37832;BME280;23671;38.090;-122.570;2023-02-22T11:46:35;100639.56;;;7.38;56.13
37832;BME280;23671;38.090;-122.570;2023-02-22T11:49:07;100630.00;;;7.38;56.30
37832;BME280;23671;38.090;-122.570;2023-02-22T12:05:57;100631.56;;;7.27;56.36
37832;BME280;23671;38.090;-122.570;2023-02-22T12:13:57;100643.31;;;7.22;56.77
37832;BME280;23671;38.090;-122.570;2023-02-22T12:17:09;100646.91;;;7.21;56.49
37832;BME280;23671;38.090;-122.570;2023-02-22T12:19:36;100629.03;;;7.26;56.27
37832;BME280;23671;38.090;-122.570;2023-02-22T12:24:56;100624.19;;;7.20;56.59
37832;BME280;23671;38.090;-122.570;2023-02-22T12:27:37;100628.59;;;7.19;56.59
37832;BME280;23671;38.090;-122.570;2023-02-22T12:30:40;100630.28;;;7.20;56.53
37832;BME280;23671;38.090;-122.570;2023-02-22T12:33:18;100634.50;;;7.23;56.39
37832;BME280;23671;38.090;-122.570;2023-02-22T12:35:54;100642.69;;;7.18;56.55
37832;BME280;23671;38.090;-122.570;2023-02-22T12:38:39;100639.94;;;7.20;56.46
37832;BME280;23671;38.090;-122.570;2023-02-22T12:44:18;100638.78;;;7.11;56.82
37832;BME280;23671;38.090;-122.570;2023-02-22T12:46:51;100634.47;;;7.10;56.80
37832;BME280;23671;38.090;-122.570;2023-02-22T12:55:23;100646.75;;;7.10;56.59
37832;BME280;23671;38.090;-122.570;2023-02-22T13:00:43;100656.50;;;7.08;56.76
37832;BME280;23671;38.090;-122.570;2023-02-22T13:03:34;100664.09;;;7.12;56.69
37832;BME280;23671;38.090;-122.570;2023-02-22T13:14:57;100660.25;;;7.04;56.94
37832;BME280;23671;38.090;-122.570;2023-02-22T13:17:54;100666.47;;;7.03;56.96
37832;BME280;23671;38.090;-122.570;2023-02-22T13:20:47;100662.06;;;7.03;56.70
37832;BME280;23671;38.090;-122.570;2023-02-22T13:23:19;100669.50;;;6.97;57.10
37832;BME280;23671;38.090;-122.570;2023-02-22T13:28:51;100665.09;;;6.97;57.03
37832;BME280;23671;38.090;-122.570;2023-02-22T13:34:40;100667.81;;;6.96;57.28
37832;BME280;23671;38.090;-122.570;2023-02-22T13:40:21;100680.09;;;6.95;57.26
37832;BME280;23671;38.090;-122.570;2023-02-22T13:54:06;100672.41;;;6.92;57.53
37832;BME280;23671;38.090;-122.570;2023-02-22T13:56:35;100668.84;;;6.93;57.15
37832;BME280;23671;38.090;-122.570;2023-02-22T13:59:19;100680.50;;;6.89;57.31
37832;BME280;23671;38.090;-122.570;2023-02-22T14:01:51;100677.75;;;6.91;57.30
37832;BME280;23671;38.090;-122.570;2023-02-22T14:06:58;100692.75;;;6.89;57.28
37832;BME280;23671;38.090;-122.570;2023-02-22T14:09:48;100691.09;;;6.88;57.15
37832;BME280;23671;38.090;-122.570;2023-02-22T14:20:37;100703.66;;;6.83;57.23
37832;BME280;23671;38.090;-122.570;2023-02-22T14:25:50;100699.25;;;6.83;57.17
37832;BME280;23671;38.090;-122.570;2023-02-22T14:31:16;100704.72;;;6.80;57.07
37832;BME280;23671;38.090;-122.570;2023-02-22T14:34:06;100717.72;;;6.82;57.01
37832;BME280;23671;38.090;-122.570;2023-02-22T14:39:26;100712.75;;;6.77;57.16
37832;BME280;23671;38.090;-122.570;2023-02-22T14:50:17;100734.06;;;6.73;57.47
37832;BME280;23671;38.090;-122.570;2023-02-22T14:52:59;100735.94;;;6.71;57.56
37832;BME280;23671;38.090;-122.570;2023-02-22T14:55:30;100732.34;;;6.72;57.54
37832;BME280;23671;38.090;-122.570;2023-02-22T14:58:09;100737.44;;;6.75;57.23
37832;BME280;23671;38.090;-122.570;2023-02-22T15:00:41;100750.72;;;6.72;57.40
37832;BME280;23671;38.090;-122.570;2023-02-22T15:03:29;100746.44;;;6.71;57.41
37832;BME280;23671;38.090;-122.570;2023-02-22T15:06:23;100754.19;;;6.72;57.30
37832;BME280;23671;38.090;-122.570;2023-02-22T15:09:23;100756.81;;;6.72;57.21
37832;BME280;23671;38.090;-122.570;2023-02-22T15:11:51;100752.69;;;6.68;57.34
37832;BME280;23671;38.090;-122.570;2023-02-22T15:14:21;100754.78;;;6.63;57.69
37832;BME280;23671;38.090;-122.570;2023-02-22T15:17:00;100760.78;;;6.65;57.54
37832;BME280;23671;38.090;-122.570;2023-02-22T15:19:30;100760.03;;;6.63;57.60
37832;BME280;23671;38.090;-122.570;2023-02-22T15:22:01;100766.03;;;6.65;57.61